Latest Weather Observations for Oenpelli Airport

IDD60801

Issued at 11:31 pm CST Tuesday 6 December 2016 (issued every 30 minutes, with the page automatically refreshed every 10 minutes)

About weather observations | Map of weather stations | Latest weather observations for NT | Other Formats
Station Details ID: 014310 Name: OENPELLI AIRPORT Lat: -12.33 Lon: 133.01 Height: 7.5 m
Data from the previous 72 hours. | See also: Recent months at Oenpelli Airport
Date/Time
CST
Temp
°C
App
Temp
°C
Dew
Point
°C
Rel
Hum
%
Delta-T
°C
Wind Press
QNH
hPa
Press
MSL
hPa
Rain since
9am
mm
Dir  Spd
km/h
Gust
km/h
Spd
kts
Gust
kts
06/11:30pm 27.8 - - - - ENE 2 4 1 2 1009.5 1009.4 0.0
06/11:00pm 27.7 - - - - ENE 4 4 2 2 1009.6 1009.5 0.0
06/10:30pm 28.0 - - - - NE 4 6 2 3 1009.2 1009.1 0.0
06/10:00pm 28.2 - - - - NNE 4 6 2 3 1009.0 1008.9 0.0
06/09:30pm 29.1 - - - - NNE 6 9 3 5 1008.6 1008.5 0.0
06/09:00pm 29.3 - - - - N 7 9 4 5 1008.2 1008.1 0.0
06/08:30pm 29.1 - - - - NNW 6 9 3 5 1007.9 1007.8 0.0
06/08:00pm 30.5 - - - - NNW 7 11 4 6 1007.5 1007.4 0.0
06/07:30pm 30.9 - - - - N 9 13 5 7 1007.0 1006.9 0.0
06/07:00pm 31.6 - - - - N 7 11 4 6 1006.5 1006.4 0.0
06/06:30pm 32.4 - - - - N 11 17 6 9 1006.2 1006.1 0.0
06/06:00pm 33.1 - - - - N 13 20 7 11 1005.9 1005.8 0.0
06/05:30pm 33.8 - - - - NNE 15 22 8 12 1005.7 1005.6 0.0
06/05:00pm 33.9 - - - - N 19 28 10 15 1005.7 1005.6 0.0
06/04:30pm 33.4 - - - - NNE 17 24 9 13 1005.7 1005.6 0.0
06/04:00pm 35.6 - - - - NNE 7 13 4 7 1005.7 1005.6 0.0
06/03:30pm 35.9 - - - - NNE 6 11 3 6 1006.0 1005.9 0.0
06/03:00pm 35.9 - - - - ENE 9 15 5 8 1006.2 1006.1 0.0
06/02:30pm 35.5 - - - - NE 11 17 6 9 1006.7 1006.6 0.0
06/02:00pm 35.1 - - - - ESE 6 9 3 5 1007.4 1007.3 0.0
06/01:30pm 34.8 - - - - ESE 6 13 3 7 1007.7 1007.6 0.0
06/01:00pm 34.6 - - - - ENE 2 9 1 5 1008.2 1008.1 0.0
06/12:30pm 34.0 - - - - ENE 7 15 4 8 1008.6 1008.5 0.0
06/12:00pm 33.8 - - - - ENE 9 17 5 9 1009.1 1009.0 0.0
06/11:30am 33.7 - - - - NNE 9 13 5 7 1009.5 1009.4 0.0
06/11:00am 33.0 - - - - ESE 6 11 3 6 1010.1 1010.0 0.0
06/10:30am 33.2 - - - - ESE 9 15 5 8 1010.5 1010.4 0.0
06/10:00am 32.0 - - - - SE 6 9 3 5 1010.8 1010.7 0.0
06/09:30am 31.9 - - - - ESE 7 15 4 8 1010.9 1010.8 0.0
06/09:00am 31.3 - - - - SSE 2 7 1 4 1011.0 1010.9 0.0
06/08:30am 30.2 - - - - SSW 4 9 2 5 1011.0 1010.9 0.0
06/08:00am 29.2 - - - - SW 6 9 3 5 1010.9 1010.8 0.0
06/07:30am 28.0 - - - - SW 4 6 2 3 1010.7 1010.6 0.0
06/07:00am 26.8 - - - - SW 6 7 3 4 1010.6 1010.5 0.0
06/06:30am 25.8 - - - - SW 4 6 2 3 1010.5 1010.4 0.0
06/06:00am 25.4 - - - - SW 4 6 2 3 1010.1 1010.0 0.0
06/05:30am 25.7 - - - - SW 6 7 3 4 1009.8 1009.7 0.0
06/05:00am 25.2 - - - - NNW 2 6 1 3 1009.4 1009.3 0.0
06/04:30am 24.9 - - - - CALM 0 0 0 0 1009.1 1009.0 0.0
06/04:00am 25.9 - - - - CALM 0 0 0 0 1008.7 1008.6 0.0
06/03:30am 26.0 - - - - CALM 0 0 0 0 1008.6 1008.5 0.0
06/03:00am 26.3 - - - - CALM 0 0 0 0 1008.6 1008.5 0.0
06/02:30am 26.4 - - - - CALM 0 0 0 0 1008.5 1008.4 0.0
06/02:00am 26.5 - - - - NE 2 6 1 3 1008.5 1008.4 0.0
06/01:30am 26.7 - - - - CALM 0 0 0 0 1008.8 1008.7 0.0
06/01:00am 26.5 - - - - CALM 0 0 0 0 1009.1 1009.0 0.0
06/12:30am 26.7 - - - - CALM 0 0 0 0 1009.3 1009.2 0.0
06/12:00am 26.2 - - - - CALM 0 0 0 0 1009.6 1009.5 0.0
 
Date/Time
CST
Temp
°C
App
Temp
°C
Dew
Point
°C
Rel
Hum
%
Delta-T
°C
Wind Press
QNH
hPa
Press
MSL
hPa
Rain since
9am
mm
Dir  Spd
km/h
Gust
km/h
Spd
kts
Gust
kts
05/11:30pm 26.6 - - - - CALM 0 0 0 0 1009.6 1009.5 0.0
05/11:00pm 26.9 - - - - NE 4 4 2 2 1009.6 1009.5 0.0
05/10:30pm 27.3 - - - - NE 4 6 2 3 1009.5 1009.4 0.0
05/10:00pm 27.8 - - - - NE 4 6 2 3 1009.4 1009.3 0.0
05/09:30pm 28.3 - - - - NE 6 7 3 4 1009.0 1008.9 0.0
05/09:00pm 28.7 - - - - N 6 9 3 5 1008.7 1008.6 0.0
05/08:30pm 28.3 - - - - NW 7 11 4 6 1008.3 1008.2 0.0
05/08:00pm 29.8 - - - - NNE 7 11 4 6 1008.0 1007.9 0.0
05/07:30pm 30.5 - - - - N 7 9 4 5 1007.6 1007.5 0.0
05/07:00pm 30.8 - - - - NNE 13 17 7 9 1007.1 1007.0 0.0
05/06:30pm 33.0 - - - - NNE 7 11 4 6 1006.7 1006.6 0.0
05/06:00pm 34.3 - - - - NNE 7 9 4 5 1006.5 1006.4 0.0
05/05:30pm 35.0 - - - - NNE 9 15 5 8 1006.2 1006.1 0.0
05/05:00pm 35.5 - - - - NE 7 19 4 10 1005.9 1005.8 0.0
05/04:30pm 35.4 - - - - NE 11 19 6 10 1005.8 1005.7 0.0
05/04:00pm 35.5 - - - - NNE 9 15 5 8 1005.8 1005.7 0.0
05/03:30pm 35.6 - - - - NE 7 13 4 7 1006.0 1005.9 0.0
05/03:00pm 35.4 - - - - ENE 9 19 5 10 1006.3 1006.2 0.0
05/02:30pm 35.1 - - - - ESE 6 11 3 6 1006.7 1006.6 0.0
05/02:00pm 35.0 - - - - NNE 9 15 5 8 1007.2 1007.1 0.0
05/01:30pm 34.9 - - - - NE 7 13 4 7 1007.4 1007.3 0.0
05/01:00pm 34.4 - - - - E 6 11 3 6 1007.8 1007.7 0.0
05/12:30pm 34.8 - - - - E 9 20 5 11 1008.1 1008.0 0.0
05/12:00pm 34.4 - - - - E 7 15 4 8 1008.6 1008.5 0.0
05/11:30am 33.4 - - - - E 7 15 4 8 1009.0 1008.9 0.0
05/11:00am 32.4 - - - - ESE 6 15 3 8 1009.6 1009.5 0.0
05/10:30am 32.5 - - - - NE 7 15 4 8 1009.9 1009.8 0.0
05/10:00am 32.1 - - - - NE 7 13 4 7 1010.2 1010.1 0.0
05/09:30am 31.3 - - - - ENE 6 9 3 5 1010.2 1010.1 0.0
05/09:00am 31.3 - - - - E 6 9 3 5 1010.4 1010.3 0.0
05/08:30am 30.5 - - - - ENE 7 11 4 6 1010.3 1010.2 0.0
05/08:00am 30.0 - - - - CALM 0 0 0 0 1010.1 1010.0 0.0
05/07:30am 27.3 - - - - CALM 0 0 0 0 1009.9 1009.8 0.0
05/07:00am 25.8 - - - - CALM 0 0 0 0 1009.5 1009.4 0.0
05/06:30am 24.3 - - - - CALM 0 0 0 0 1009.1 1009.0 0.0
05/06:00am 23.8 - - - - CALM 0 0 0 0 1008.9 1008.8 0.0
05/05:30am 23.5 - - - - CALM 0 0 0 0 1008.6 1008.5 0.0
05/05:00am 23.7 - - - - CALM 0 0 0 0 1008.4 1008.3 0.0
05/04:30am 24.8 - - - - CALM 0 0 0 0 1008.0 1007.9 0.0
05/04:00am 25.6 - - - - CALM 0 0 0 0 1008.0 1007.9 0.0
05/03:30am 25.5 - - - - CALM 0 0 0 0 1008.0 1007.9 0.0
05/03:00am 26.1 - - - - WNW 2 2 1 1 1007.8 1007.7 0.0
05/02:30am 26.2 - - - - WNW 2 4 1 2 1007.9 1007.8 0.0
05/02:00am 26.6 - - - - WNW 4 6 2 3 1008.1 1008.0 0.0
05/01:30am 27.4 - - - - WNW 6 7 3 4 1008.4 1008.3 0.0
05/01:00am 27.9 - - - - WNW 6 7 3 4 1008.9 1008.8 0.0
05/12:30am 28.0 - - - - CALM 0 4 0 2 1009.3 1009.2 0.0
05/12:00am 27.6 - - - - WNW 2 4 1 2 1009.7 1009.6 0.0
 
Date/Time
CST
Temp
°C
App
Temp
°C
Dew
Point
°C
Rel
Hum
%
Delta-T
°C
Wind Press
QNH
hPa
Press
MSL
hPa
Rain since
9am
mm
Dir  Spd
km/h
Gust
km/h
Spd
kts
Gust
kts
04/11:30pm 27.0 - - - - CALM 0 0 0 0 1009.7 1009.6 0.0
04/11:00pm 27.4 - - - - CALM 0 0 0 0 1009.7 1009.6 0.0
04/10:30pm 27.2 - - - - CALM 0 0 0 0 1009.8 1009.7 0.0
04/10:00pm 27.0 - - - - CALM 0 0 0 0 1009.7 1009.6 0.0
04/09:30pm 27.7 - - - - CALM 0 0 0 0 1009.4 1009.3 0.0
04/09:00pm 28.6 - - - - CALM 0 4 0 2 1009.1 1009.0 0.0
04/08:30pm 29.2 - - - - N 2 4 1 2 1008.8 1008.7 0.0
04/08:00pm 29.5 - - - - NNE 9 15 5 8 1008.1 1008.0 0.0
04/07:30pm 30.1 - - - - NNE 11 17 6 9 1007.9 1007.8 0.0
04/07:00pm 31.0 - - - - NNE 11 19 6 10 1007.5 1007.4 0.0
04/06:30pm 31.9 - - - - NNE 15 24 8 13 1007.1 1007.0 0.0
04/06:00pm 33.0 - - - - NNE 15 26 8 14 1006.6 1006.5 0.0
04/05:30pm 34.1 - - - - NNE 17 24 9 13 1006.5 1006.4 0.0
04/05:00pm 35.1 - - - - NNE 17 26 9 14 1006.5 1006.4 0.0
04/04:30pm 36.4 - - - - NNE 15 22 8 12 1006.4 1006.3 0.0
04/04:00pm 36.6 - - - - NE 13 20 7 11 1006.5 1006.4 0.0
04/03:30pm 36.3 - - - - ENE 13 22 7 12 1006.6 1006.5 0.0
04/03:00pm 36.9 - - - - NE 13 26 7 14 1006.7 1006.6 0.0
04/02:30pm 36.4 - - - - NNE 13 22 7 12 1007.1 1007.0 0.0
04/02:00pm 36.1 - - - - NNE 11 17 6 9 1007.7 1007.6 0.0
04/01:30pm 35.9 - - - - NE 13 24 7 13 1008.1 1008.0 0.0
04/01:00pm 35.5 - - - - NE 13 20 7 11 1008.5 1008.4 0.0
04/12:30pm 35.4 - - - - NE 13 20 7 11 1008.9 1008.8 0.0
04/12:00pm 34.6 - - - - E 9 15 5 8 1009.3 1009.2 0.0
04/11:30am 34.0 - - - - NNE 7 15 4 8 1009.7 1009.6 0.0
04/11:00am 33.3 - - - - ENE 7 15 4 8 1010.0 1009.9 0.0
04/10:30am 32.9 - - - - E 6 11 3 6 1010.1 1010.0 0.0
04/10:00am 32.3 - - - - ENE 6 11 3 6 1010.5 1010.4 0.0
04/09:30am 31.9 - - - - E 6 11 3 6 1010.7 1010.6 0.0
04/09:00am 31.4 - - - - ESE 4 7 2 4 1010.8 1010.7 0.0
04/08:30am 30.8 - - - - E 6 11 3 6 1011.0 1010.9 0.0
04/08:00am 30.0 - - - - E 4 6 2 3 1010.9 1010.8 0.0
04/07:30am 28.6 - - - - CALM 0 0 0 0 1010.7 1010.6 0.0
04/07:00am 26.4 - - - - CALM 0 0 0 0 1010.5 1010.4 0.0
04/06:30am 25.0 - - - - CALM 0 0 0 0 1010.2 1010.1 0.0
04/06:00am 24.8 - - - - CALM 0 0 0 0 1009.9 1009.8 0.0
04/05:30am 24.4 - - - - SW 2 4 1 2 1009.7 1009.6 0.0
04/05:00am 25.1 - - - - CALM 0 0 0 0 1009.3 1009.2 0.0
04/04:30am 25.2 - - - - SW 2 4 1 2 1009.1 1009.0 0.0
04/04:00am 24.9 - - - - CALM 0 0 0 0 1008.9 1008.8 0.0
04/03:30am 25.3 - - - - CALM 0 0 0 0 1008.8 1008.7 0.0
04/03:00am 24.9 - - - - SW 2 6 1 3 1008.8 1008.7 0.0
04/02:30am 24.0 - - - - S 2 4 1 2 1008.8 1008.7 0.0
04/02:00am 25.3 - - - - CALM 0 2 0 1 1009.1 1009.0 0.0
04/01:30am 24.9 - - - - CALM 0 0 0 0 1009.4 1009.3 0.0
04/01:00am 25.7 - - - - CALM 0 0 0 0 1009.6 1009.5 0.0
04/12:30am 25.4 - - - - ENE 2 2 1 1 1009.8 1009.7 0.0
04/12:00am 26.1 - - - - CALM 0 0 0 0 1010.3 1010.2 0.0

Other Formats:

Comma delimited format used in spreadsheet applications
http://www.bom.gov.au/fwo/IDD60801/IDD60801.94110.axf

JavaScript Object Notation format (JSON) in row-major order
http://www.bom.gov.au/fwo/IDD60801/IDD60801.94110.json